| time (UTC) | temp C | wind direction | speed KPH | gust KPH | rain 1hr cm | rain 24hr cm | rain mn cm | humidity % | barometer mb |
| 20260904111505 | 10 | 327 | 0.0 | 1.6 | 0.00 | 0.00 | 0.00 | 72 | 1010.4 |
| 20260904110005 | 11 | 328 | 1.6 | 3.2 | 0.00 | 0.00 | 0.00 | 70 | 1010.3 |
| 20260904104547 | 11 | 324 | 3.2 | 4.8 | 0.00 | 0.00 | 0.00 | 68 | 1010.3 |
| 20260904103046 | 11 | 316 | 1.6 | 6.4 | 0.00 | 0.00 | 0.00 | 69 | 1010.2 |
| 20260904101529 | 11 | 305 | 3.2 | 4.8 | 0.00 | 0.00 | 0.00 | 72 | 1009.9 |
| 20260904100029 | 11 | 35 | 0.0 | 3.2 | 0.00 | 0.00 | 0.00 | 74 | 1009.7 |
| 20260904094508 | 11 | 79 | 8.0 | 11.3 | 0.00 | 0.00 | 0.00 | 61 | 1009.5 |
| 20260904093003 | 13 | 328 | 0.0 | 8.0 | 0.00 | 0.00 | 0.00 | 56 | 1009.2 |
| 20260904091546 | 13 | 320 | 3.2 | 8.0 | 0.00 | 0.00 | 0.00 | 57 | 1009.1 |
| 20260904090046 | 13 | 315 | 3.2 | 8.0 | 0.00 | 0.00 | 0.00 | 59 | 1009.1 |
| 20260904084527 | 13 | 287 | 4.8 | 8.0 | 0.00 | 0.00 | 0.00 | 58 | 1009.3 |
| 20260904083029 | 13 | 304 | 6.4 | 8.0 | 0.00 | 0.00 | 0.00 | 57 | 1009.2 |
| 20260904081508 | 14 | 271 | 8.0 | 9.7 | 0.00 | 0.00 | 0.00 | 59 | 1009.1 |
| 20260904080008 | 13 | 281 | 4.8 | 8.0 | 0.00 | 0.00 | 0.00 | 61 | 1009.2 |
| 20260904074558 | 14 | 242 | 4.8 | 8.0 | 0.00 | 0.00 | 0.00 | 57 | 1009.2 |
| 20260904073104 | 14 | 297 | 3.2 | 11.3 | 0.00 | 0.00 | 0.00 | 58 | 1009.1 |
| 20260904071556 | 15 | 264 | 9.7 | 14.5 | 0.00 | 0.00 | 0.00 | 58 | 1009.1 |
| 20260904070056 | 15 | 277 | 6.4 | 11.3 | 0.00 | 0.00 | 0.00 | 58 | 1009.1 |
| 20260904064603 | 15 | 260 | 9.7 | 14.5 | 0.00 | 0.00 | 0.00 | 56 | 1009.0 |
| 20260904063108 | 15 | 281 | 6.4 | 11.3 | 0.00 | 0.00 | 0.00 | 56 | 1009.0 |
| 20260904061553 | 15 | 304 | 4.8 | 11.3 | 0.00 | 0.00 | 0.00 | 56 | 1008.7 |
| 20260904060109 | 15 | 267 | 8.0 | 11.3 | 0.00 | 0.00 | 0.00 | 55 | 1008.7 |
| 20260904054542 | 15 | 277 | 9.7 | 12.9 | 0.00 | 0.00 | 0.00 | 55 | 1008.7 |
| 20260904053036 | 16 | 266 | 8.0 | 14.5 | 0.00 | 0.00 | 0.00 | 52 | 1008.7 |
| 20260904051518 | 16 | 276 | 8.0 | 12.9 | 0.00 | 0.00 | 0.00 | 53 | 1008.7 |
| 20260904050030 | 16 | 274 | 3.2 | 9.7 | 0.00 | 0.00 | 0.00 | 53 | 1008.7 |
| 20260904044601 | 16 | 280 | 8.0 | 11.3 | 0.00 | 0.00 | 0.00 | 52 | 1008.5 |
| 20260904043106 | 16 | 284 | 3.2 | 6.4 | 0.00 | 0.00 | 0.00 | 51 | 1008.2 |
| 20260904043001 | 16 | 278 | 3.2 | 6.4 | 0.00 | 0.00 | 0.00 | 51 | 1008.2 |
| 20260904041541 | 16 | 276 | 4.8 | 8.0 | 0.00 | 0.00 | 0.00 | 50 | 1008.0 |
| 20260904040042 | 17 | 224 | 6.4 | 8.0 | 0.00 | 0.00 | 0.00 | 49 | 1007.9 |
| 20260904034522 | 17 | 291 | 1.6 | 4.8 | 0.00 | 0.00 | 0.00 | 49 | 1008.0 |
| 20260904033021 | 17 | 250 | 1.6 | 8.0 | 0.00 | 0.00 | 0.00 | 49 | 1008.0 |
| 20260904031504 | 17 | 307 | 1.6 | 4.8 | 0.00 | 0.00 | 0.00 | 51 | 1007.8 |
| 20260904030003 | 18 | 211 | 4.8 | 9.7 | 0.00 | 0.00 | 0.00 | 46 | 1007.5 |
| 20260904024609 | 18 | 263 | 8.0 | 9.7 | 0.00 | 0.00 | 0.00 | 47 | 1007.2 |
| 20260904023046 | 18 | 269 | 0.0 | 0.0 | 0.00 | 0.00 | 0.00 | 46 | 1007.1 |
| 20260904021552 | 18 | 143 | 0.0 | 0.0 | 0.00 | 0.00 | 0.00 | 45 | 1007.2 |
| 20260904020026 | 19 | 132 | 0.0 | 3.2 | 0.00 | 0.00 | 0.00 | 45 | 1007.4 |
| 20260904014525 | 20 | 224 | 3.2 | 6.4 | 0.00 | 0.00 | 0.00 | 41 | 1007.4 |
| 20260904013007 | 20 | 190 | 3.2 | 8.0 | 0.00 | 0.00 | 0.00 | 40 | 1007.4 |
| 20260904011505 | 20 | 191 | 8.0 | 14.5 | 0.00 | 0.00 | 0.00 | 39 | 1007.4 |
| 20260904010049 | 20 | 197 | 12.9 | 19.3 | 0.00 | 0.00 | 0.00 | 38 | 1007.5 |
| 20260904004547 | 20 | 203 | 14.5 | 24.1 | 0.00 | 0.00 | 0.00 | 38 | 1007.5 |
| 20260904003030 | 20 | 200 | 19.3 | 30.6 | 0.00 | 0.00 | 0.00 | 36 | 1007.6 |
| 20260904001547 | 21 | 197 | 20.9 | 30.6 | 0.00 | 0.00 | 0.00 | 35 | 1007.6 |
| 20260904000010 | 21 | 204 | 22.5 | 29.0 | 0.00 | 0.00 | 0.00 | 34 | 1007.6 |
| 20260903234509 | 21 | 208 | 17.7 | 27.4 | 0.00 | 0.00 | 0.00 | 34 | 1007.6 |
| 20260903233051 | 21 | 222 | 20.9 | 30.6 | 0.00 | 0.00 | 0.00 | 34 | 1007.6 |
| 20260903231601 | 21 | 198 | 16.1 | 25.7 | 0.00 | 0.00 | 0.00 | 35 | 1007.7 |
| 20260903230031 | 22 | 250 | 17.7 | 30.6 | 0.00 | 0.00 | 0.00 | 34 | 1007.8 |
| 20260903224529 | 22 | 203 | 24.1 | 37.0 | 0.00 | 0.00 | 0.00 | 34 | 1008.1 |
| 20260903223005 | 21 | 236 | 22.5 | 37.0 | 0.00 | 0.00 | 0.00 | 35 | 1008.2 |
| 20260903221503 | 21 | 211 | 12.9 | 35.4 | 0.00 | 0.00 | 0.00 | 37 | 1008.2 |
| 20260903220042 | 21 | 204 | 11.3 | 27.4 | 0.00 | 0.00 | 0.00 | 38 | 1008.2 |
| 20260903214541 | 21 | 166 | 4.8 | 24.1 | 0.00 | 0.00 | 0.00 | 40 | 1008.5 |
| 20260903213035 | 21 | 219 | 20.9 | 32.2 | 0.00 | 0.00 | 0.00 | 38 | 1008.7 |
| 20260903211523 | 21 | 215 | 17.7 | 32.2 | 0.00 | 0.00 | 0.00 | 37 | 1008.8 |
| 20260903210020 | 20 | 215 | 17.7 | 32.2 | 0.00 | 0.00 | 0.00 | 39 | 1008.9 |
| 20260903204517 | 20 | 145 | 12.9 | 29.0 | 0.00 | 0.00 | 0.00 | 39 | 1009.1 |
| 20260903203014 | 20 | 153 | 9.7 | 25.7 | 0.00 | 0.00 | 0.00 | 44 | 1009.3 |
| 20260903201613 | 19 | 210 | 14.5 | 30.6 | 0.00 | 0.00 | 0.00 | 45 | 1009.5 |
| 20260903200015 | 19 | 188 | 12.9 | 30.6 | 0.00 | 0.00 | 0.00 | 44 | 1009.7 |
| 20260903194514 | 19 | 221 | 19.3 | 30.6 | 0.00 | 0.00 | 0.00 | 47 | 1009.7 |
| 20260903193017 | 19 | 266 | 16.1 | 27.4 | 0.00 | 0.00 | 0.00 | 50 | 1009.8 |
| 20260903191611 | 18 | 204 | 17.7 | 32.2 | 0.00 | 0.00 | 0.00 | 53 | 1009.9 |
| 20260903190012 | 18 | 197 | 19.3 | 30.6 | 0.00 | 0.00 | 0.00 | 54 | 1010.1 |
| 20260903184508 | 18 | 191 | 24.1 | 35.4 | 0.00 | 0.00 | 0.00 | 51 | 1010.1 |
| 20260903183017 | 18 | 203 | 19.3 | 33.8 | 0.00 | 0.00 | 0.00 | 52 | 1010.1 |
| 20260903181604 | 18 | 245 | 24.1 | 29.0 | 0.00 | 0.00 | 0.00 | 51 | 1010.1 |
| 20260903180043 | 18 | 229 | 24.1 | 33.8 | 0.00 | 0.00 | 0.00 | 51 | 1010.1 |
| 20260903174540 | 17 | 244 | 17.7 | 24.1 | 0.00 | 0.00 | 0.00 | 57 | 1010.2 |
| 20260903173019 | 16 | 207 | 14.5 | 27.4 | 0.00 | 0.00 | 0.00 | 65 | 1010.2 |
| 20260903171519 | 16 | 245 | 19.3 | 27.4 | 0.00 | 0.00 | 0.00 | 62 | 1010.3 |
| 20260903170100 | 16 | 194 | 12.9 | 22.5 | 0.00 | 0.00 | 0.00 | 66 | 1010.2 |
| 20260903164558 | 15 | 252 | 14.5 | 25.7 | 0.00 | 0.00 | 0.00 | 65 | 1010.3 |
| 20260903163056 | 15 | 250 | 22.5 | 29.0 | 0.00 | 0.00 | 0.00 | 63 | 1010.3 |
| 20260903161538 | 15 | 219 | 20.9 | 30.6 | 0.00 | 0.00 | 0.00 | 65 | 1010.2 |
| 20260903160019 | 15 | 252 | 17.7 | 22.5 | 0.00 | 0.00 | 0.00 | 65 | 1010.1 |
| 20260903154516 | 15 | 214 | 11.3 | 17.7 | 0.00 | 0.00 | 0.00 | 68 | 1010.3 |
| 20260903153054 | 14 | 204 | 12.9 | 17.7 | 0.00 | 0.00 | 0.00 | 69 | 1010.5 |
| 20260903151553 | 13 | 207 | 9.7 | 16.1 | 0.00 | 0.00 | 0.00 | 69 | 1010.5 |
| 20260903150035 | 14 | 225 | 8.0 | 11.3 | 0.00 | 0.00 | 0.00 | 69 | 1010.5 |
| 20260903144530 | 13 | 177 | 4.8 | 11.3 | 0.00 | 0.00 | 0.00 | 71 | 1010.4 |
| 20260903143014 | 12 | 187 | 4.8 | 8.0 | 0.00 | 0.00 | 0.00 | 73 | 1010.3 |
| 20260903141513 | 11 | 87 | 1.6 | 4.8 | 0.00 | 0.00 | 0.00 | 78 | 1010.1 |
| 20260903140015 | 11 | 103 | 6.4 | 12.9 | 0.00 | 0.00 | 0.00 | 78 | 1009.8 |
| 20260903134508 | 11 | 110 | 4.8 | 9.7 | 0.00 | 0.00 | 0.00 | 75 | 1009.7 |
| 20260903133003 | 13 | 162 | 8.0 | 16.1 | 0.00 | 0.00 | 0.00 | 66 | 1009.4 |
| 20260903131600 | 13 | 293 | 12.9 | 27.4 | 0.00 | 0.00 | 0.00 | 67 | 1009.0 |
| 20260903130107 | 12 | 276 | 19.3 | 27.4 | 0.00 | 0.00 | 0.00 | 73 | 1008.9 |
| 20260903124606 | 11 | 204 | 9.7 | 12.9 | 0.00 | 0.00 | 0.00 | 79 | 1009.1 |
| 20260903123040 | 10 | 215 | 6.4 | 11.3 | 0.00 | 0.00 | 0.00 | 81 | 1009.1 |
| 20260903121549 | 10 | 257 | 6.4 | 9.7 | 0.00 | 0.00 | 0.00 | 79 | 1009.1 |
| 20260903120022 | 10 | 194 | 1.6 | 4.8 | 0.00 | 0.00 | 0.00 | 79 | 1009.1 |
| 20260903114518 | 11 | 274 | 0.0 | 6.4 | 0.00 | 0.00 | 0.00 | 77 | 1009.0 |
| 20260903113055 | 11 | 309 | 0.0 | 1.6 | 0.00 | 0.00 | 0.00 | 76 | 1009.0 |